Terminal Aerodrome Forecast
Issued by NWS

Current Version | Previous Version | Graphics & Text | Print | Product List | Glossary On
Versions: 1 2 3 4 5 6 7 8 9 10 11 12 13 14 15 16 17 18 19 20 21 22 23
000
FTUS41 KILN 312300
TAFLUK
TAF
KLUK 312333Z 0100/0124 21007KT P6SM SCT030 BKN250
     FM010600 20003KT 5SM BR OVC015
     FM011000 21003KT 2SM BR VCSH OVC012
     FM011400 21005KT 5SM BR BKN015
     FM011500 21009KT P6SM BKN022
     FM011700 21012G20KT P6SM SCT040=

USA.gov is the U.S. government's official web portal to all federal, state and local government web resources and services.